sensor_id;sensor_type;location;lat;lon;timestamp;temperature;humidity
67974;DHT22;54756;51.140;6.952;2023-02-28T00:00:30;-2.40;56.80
67974;DHT22;54756;51.140;6.952;2023-02-28T00:02:31;-2.50;56.90
67974;DHT22;54756;51.140;6.952;2023-02-28T00:04:32;-2.50;56.90
67974;DHT22;54756;51.140;6.952;2023-02-28T00:06:32;-2.50;57.50
67974;DHT22;54756;51.140;6.952;2023-02-28T00:08:33;-2.50;57.50
67974;DHT22;54756;51.140;6.952;2023-02-28T00:10:34;-2.60;57.30
67974;DHT22;54756;51.140;6.952;2023-02-28T00:12:36;-2.60;57.40
67974;DHT22;54756;51.140;6.952;2023-02-28T00:14:36;-2.60;57.60
67974;DHT22;54756;51.140;6.952;2023-02-28T00:16:37;-2.60;58.10
67974;DHT22;54756;51.140;6.952;2023-02-28T00:18:38;-2.70;57.60
67974;DHT22;54756;51.140;6.952;2023-02-28T00:20:38;-2.70;57.90
67974;DHT22;54756;51.140;6.952;2023-02-28T00:22:41;-2.70;58.10
67974;DHT22;54756;51.140;6.952;2023-02-28T00:24:42;-2.80;58.00
67974;DHT22;54756;51.140;6.952;2023-02-28T00:26:43;-2.80;58.30
67974;DHT22;54756;51.140;6.952;2023-02-28T00:28:43;-2.80;58.60
67974;DHT22;54756;51.140;6.952;2023-02-28T00:30:44;-2.80;58.70
67974;DHT22;54756;51.140;6.952;2023-02-28T00:32:45;-2.80;59.00
67974;DHT22;54756;51.140;6.952;2023-02-28T00:34:46;-2.80;59.30
67974;DHT22;54756;51.140;6.952;2023-02-28T00:36:46;-2.80;59.60
67974;DHT22;54756;51.140;6.952;2023-02-28T00:38:49;-2.80;60.00
67974;DHT22;54756;51.140;6.952;2023-02-28T00:40:49;-2.80;60.60
67974;DHT22;54756;51.140;6.952;2023-02-28T00:42:50;-2.70;61.30
67974;DHT22;54756;51.140;6.952;2023-02-28T00:44:50;-2.70;61.60
67974;DHT22;54756;51.140;6.952;2023-02-28T00:46:51;-2.60;61.60
67974;DHT22;54756;51.140;6.952;2023-02-28T00:48:52;-2.60;61.80
67974;DHT22;54756;51.140;6.952;2023-02-28T00:50:52;-2.50;61.90
67974;DHT22;54756;51.140;6.952;2023-02-28T00:52:53;-2.50;61.60
67974;DHT22;54756;51.140;6.952;2023-02-28T00:54:53;-2.50;61.60
67974;DHT22;54756;51.140;6.952;2023-02-28T00:56:54;-2.40;61.40
67974;DHT22;54756;51.140;6.952;2023-02-28T00:58:55;-2.40;60.90
67974;DHT22;54756;51.140;6.952;2023-02-28T01:00:55;-2.40;60.80
67974;DHT22;54756;51.140;6.952;2023-02-28T01:02:56;-2.40;60.50
67974;DHT22;54756;51.140;6.952;2023-02-28T01:04:56;-2.40;60.30
67974;DHT22;54756;51.140;6.952;2023-02-28T01:06:57;-2.40;60.20
67974;DHT22;54756;51.140;6.952;2023-02-28T01:08:58;-2.40;60.00
67974;DHT22;54756;51.140;6.952;2023-02-28T01:11:10;-2.40;59.80
67974;DHT22;54756;51.140;6.952;2023-02-28T01:13:12;-2.40;60.10
67974;DHT22;54756;51.140;6.952;2023-02-28T01:15:12;-2.40;60.30
67974;DHT22;54756;51.140;6.952;2023-02-28T01:17:13;-2.40;60.50
67974;DHT22;54756;51.140;6.952;2023-02-28T01:19:14;-2.40;60.90
67974;DHT22;54756;51.140;6.952;2023-02-28T01:21:16;-2.40;61.30
67974;DHT22;54756;51.140;6.952;2023-02-28T01:23:19;-2.40;60.80
67974;DHT22;54756;51.140;6.952;2023-02-28T01:25:20;-2.50;60.20
67974;DHT22;54756;51.140;6.952;2023-02-28T01:27:20;-2.50;60.10
67974;DHT22;54756;51.140;6.952;2023-02-28T01:29:21;-2.50;60.00
67974;DHT22;54756;51.140;6.952;2023-02-28T01:31:22;-2.50;60.00
67974;DHT22;54756;51.140;6.952;2023-02-28T01:33:23;-2.50;60.20
67974;DHT22;54756;51.140;6.952;2023-02-28T01:35:23;-2.50;61.00
67974;DHT22;54756;51.140;6.952;2023-02-28T01:37:24;-2.60;61.00
67974;DHT22;54756;51.140;6.952;2023-02-28T01:39:25;-2.60;61.00
67974;DHT22;54756;51.140;6.952;2023-02-28T01:41:29;-2.60;61.10
67974;DHT22;54756;51.140;6.952;2023-02-28T01:43:54;-2.60;60.90
67974;DHT22;54756;51.140;6.952;2023-02-28T01:45:57;-2.70;60.70
67974;DHT22;54756;51.140;6.952;2023-02-28T01:48:06;-2.70;61.90
67974;DHT22;54756;51.140;6.952;2023-02-28T01:50:14;-2.70;61.30
67974;DHT22;54756;51.140;6.952;2023-02-28T01:52:15;-2.70;61.20
67974;DHT22;54756;51.140;6.952;2023-02-28T01:54:22;-2.70;61.80
67974;DHT22;54756;51.140;6.952;2023-02-28T01:56:29;-2.80;61.10
67974;DHT22;54756;51.140;6.952;2023-02-28T01:58:30;-2.80;61.10
67974;DHT22;54756;51.140;6.952;2023-02-28T02:00:31;-2.90;61.20
67974;DHT22;54756;51.140;6.952;2023-02-28T02:02:32;-2.90;61.30
67974;DHT22;54756;51.140;6.952;2023-02-28T02:04:38;-2.90;61.70
67974;DHT22;54756;51.140;6.952;2023-02-28T02:06:44;-2.90;62.20
67974;DHT22;54756;51.140;6.952;2023-02-28T02:08:46;-3.00;62.00
67974;DHT22;54756;51.140;6.952;2023-02-28T02:10:49;-3.00;62.10
67974;DHT22;54756;51.140;6.952;2023-02-28T02:15:47;-3.10;62.50
67974;DHT22;54756;51.140;6.952;2023-02-28T02:17:52;-3.10;62.20
67974;DHT22;54756;51.140;6.952;2023-02-28T02:38:12;-3.30;64.20
67974;DHT22;54756;51.140;6.952;2023-02-28T02:40:20;-3.40;64.40
67974;DHT22;54756;51.140;6.952;2023-02-28T02:42:29;-3.40;64.80
67974;DHT22;54756;51.140;6.952;2023-02-28T02:44:39;-3.40;64.90
67974;DHT22;54756;51.140;6.952;2023-02-28T02:46:44;-3.40;64.90
67974;DHT22;54756;51.140;6.952;2023-02-28T02:48:45;-3.40;64.90
67974;DHT22;54756;51.140;6.952;2023-02-28T02:50:54;-3.40;65.00
67974;DHT22;54756;51.140;6.952;2023-02-28T02:52:57;-3.40;64.30
67974;DHT22;54756;51.140;6.952;2023-02-28T02:55:01;-3.40;64.40
67974;DHT22;54756;51.140;6.952;2023-02-28T02:57:09;-3.40;64.50
67974;DHT22;54756;51.140;6.952;2023-02-28T02:59:13;-3.40;64.70
67974;DHT22;54756;51.140;6.952;2023-02-28T03:01:23;-3.50;64.80
67974;DHT22;54756;51.140;6.952;2023-02-28T03:03:31;-3.50;64.80
67974;DHT22;54756;51.140;6.952;2023-02-28T03:05:43;-3.50;64.60
67974;DHT22;54756;51.140;6.952;2023-02-28T03:07:45;-3.50;64.80
67974;DHT22;54756;51.140;6.952;2023-02-28T03:09:51;-3.60;64.70
67974;DHT22;54756;51.140;6.952;2023-02-28T03:11:55;-3.50;65.20
67974;DHT22;54756;51.140;6.952;2023-02-28T03:16:52;-3.60;65.20
67974;DHT22;54756;51.140;6.952;2023-02-28T03:21:40;-3.50;66.10
67974;DHT22;54756;51.140;6.952;2023-02-28T03:25:11;-3.60;66.00
67974;DHT22;54756;51.140;6.952;2023-02-28T03:26:47;-3.60;66.30
67974;DHT22;54756;51.140;6.952;2023-02-28T03:29:02;-3.60;66.40
67974;DHT22;54756;51.140;6.952;2023-02-28T03:33:38;-3.60;67.20
67974;DHT22;54756;51.140;6.952;2023-02-28T03:35:47;-3.60;67.60
67974;DHT22;54756;51.140;6.952;2023-02-28T03:37:58;-3.60;67.70
67974;DHT22;54756;51.140;6.952;2023-02-28T03:40:14;-3.60;68.00
67974;DHT22;54756;51.140;6.952;2023-02-28T03:42:21;-3.60;68.30
67974;DHT22;54756;51.140;6.952;2023-02-28T03:44:30;-3.60;68.60
67974;DHT22;54756;51.140;6.952;2023-02-28T03:46:36;-3.60;69.00
67974;DHT22;54756;51.140;6.952;2023-02-28T03:48:44;-3.60;69.00
67974;DHT22;54756;51.140;6.952;2023-02-28T03:50:48;-3.50;69.40
67974;DHT22;54756;51.140;6.952;2023-02-28T03:53:01;-3.50;69.30
67974;DHT22;54756;51.140;6.952;2023-02-28T03:55:10;-3.50;69.60
67974;DHT22;54756;51.140;6.952;2023-02-28T03:57:27;-3.50;69.80
67974;DHT22;54756;51.140;6.952;2023-02-28T03:59:42;-3.50;69.60
67974;DHT22;54756;51.140;6.952;2023-02-28T04:01:47;-3.60;69.50
67974;DHT22;54756;51.140;6.952;2023-02-28T04:03:49;-3.60;69.80
67974;DHT22;54756;51.140;6.952;2023-02-28T04:05:54;-3.60;70.10
67974;DHT22;54756;51.140;6.952;2023-02-28T04:08:05;-3.60;70.40
67974;DHT22;54756;51.140;6.952;2023-02-28T04:10:06;-3.60;70.50
67974;DHT22;54756;51.140;6.952;2023-02-28T04:12:07;-3.60;70.50
67974;DHT22;54756;51.140;6.952;2023-02-28T04:14:09;-3.70;70.70
67974;DHT22;54756;51.140;6.952;2023-02-28T04:16:10;-3.70;70.70
67974;DHT22;54756;51.140;6.952;2023-02-28T04:18:12;-3.70;69.60
67974;DHT22;54756;51.140;6.952;2023-02-28T04:20:13;-3.70;70.00
67974;DHT22;54756;51.140;6.952;2023-02-28T04:22:13;-3.70;69.50
67974;DHT22;54756;51.140;6.952;2023-02-28T04:24:16;-3.80;69.70
67974;DHT22;54756;51.140;6.952;2023-02-28T04:26:17;-3.80;69.90
67974;DHT22;54756;51.140;6.952;2023-02-28T04:28:18;-3.80;70.20
67974;DHT22;54756;51.140;6.952;2023-02-28T04:30:18;-3.80;70.00
67974;DHT22;54756;51.140;6.952;2023-02-28T04:32:19;-3.70;70.20
67974;DHT22;54756;51.140;6.952;2023-02-28T04:34:20;-3.70;70.40
67974;DHT22;54756;51.140;6.952;2023-02-28T04:36:21;-3.70;70.70
67974;DHT22;54756;51.140;6.952;2023-02-28T04:38:23;-3.70;70.70
67974;DHT22;54756;51.140;6.952;2023-02-28T04:40:23;-3.70;71.10
67974;DHT22;54756;51.140;6.952;2023-02-28T04:42:24;-3.60;71.90
67974;DHT22;54756;51.140;6.952;2023-02-28T04:44:24;-3.60;72.20
67974;DHT22;54756;51.140;6.952;2023-02-28T04:46:25;-3.50;72.50
67974;DHT22;54756;51.140;6.952;2023-02-28T04:48:28;-3.50;72.80
67974;DHT22;54756;51.140;6.952;2023-02-28T04:50:29;-3.40;72.50
67974;DHT22;54756;51.140;6.952;2023-02-28T04:52:29;-3.40;72.10
67974;DHT22;54756;51.140;6.952;2023-02-28T04:54:30;-3.40;71.70
67974;DHT22;54756;51.140;6.952;2023-02-28T04:56:30;-3.40;71.10
67974;DHT22;54756;51.140;6.952;2023-02-28T04:58:31;-3.40;71.00
67974;DHT22;54756;51.140;6.952;2023-02-28T05:00:32;-3.40;71.30
67974;DHT22;54756;51.140;6.952;2023-02-28T05:02:34;-3.30;72.30
67974;DHT22;54756;51.140;6.952;2023-02-28T05:04:36;-3.30;71.80
67974;DHT22;54756;51.140;6.952;2023-02-28T05:06:36;-3.20;71.20
67974;DHT22;54756;51.140;6.952;2023-02-28T05:08:37;-3.20;71.50
67974;DHT22;54756;51.140;6.952;2023-02-28T05:10:38;-3.20;70.60
67974;DHT22;54756;51.140;6.952;2023-02-28T05:12:39;-3.20;69.90
67974;DHT22;54756;51.140;6.952;2023-02-28T05:14:39;-3.30;69.80
67974;DHT22;54756;51.140;6.952;2023-02-28T05:16:40;-3.30;70.40
67974;DHT22;54756;51.140;6.952;2023-02-28T05:18:42;-3.30;70.20
67974;DHT22;54756;51.140;6.952;2023-02-28T05:20:43;-3.30;70.20
67974;DHT22;54756;51.140;6.952;2023-02-28T05:22:43;-3.30;70.90
67974;DHT22;54756;51.140;6.952;2023-02-28T05:24:44;-3.30;70.70
67974;DHT22;54756;51.140;6.952;2023-02-28T05:26:45;-3.30;70.50
67974;DHT22;54756;51.140;6.952;2023-02-28T05:28:45;-3.30;71.00
67974;DHT22;54756;51.140;6.952;2023-02-28T05:30:46;-3.30;69.90
67974;DHT22;54756;51.140;6.952;2023-02-28T05:32:51;-3.30;70.00
67974;DHT22;54756;51.140;6.952;2023-02-28T05:34:51;-3.30;70.30
67974;DHT22;54756;51.140;6.952;2023-02-28T05:36:52;-3.30;69.80
67974;DHT22;54756;51.140;6.952;2023-02-28T05:38:52;-3.30;70.00
67974;DHT22;54756;51.140;6.952;2023-02-28T05:40:53;-3.40;70.50
67974;DHT22;54756;51.140;6.952;2023-02-28T05:42:53;-3.30;71.30
67974;DHT22;54756;51.140;6.952;2023-02-28T05:44:54;-3.30;73.00
67974;DHT22;54756;51.140;6.952;2023-02-28T05:46:54;-3.20;74.00
67974;DHT22;54756;51.140;6.952;2023-02-28T05:48:55;-3.20;72.80
67974;DHT22;54756;51.140;6.952;2023-02-28T05:50:58;-3.10;73.30
67974;DHT22;54756;51.140;6.952;2023-02-28T05:52:58;-3.00;73.40
67974;DHT22;54756;51.140;6.952;2023-02-28T05:54:59;-2.90;73.40
67974;DHT22;54756;51.140;6.952;2023-02-28T05:56:59;-2.80;72.90
67974;DHT22;54756;51.140;6.952;2023-02-28T05:59:00;-2.70;72.40
67974;DHT22;54756;51.140;6.952;2023-02-28T06:01:38;-2.70;71.70
67974;DHT22;54756;51.140;6.952;2023-02-28T06:03:39;-2.60;70.70
67974;DHT22;54756;51.140;6.952;2023-02-28T06:05:39;-2.60;70.10
67974;DHT22;54756;51.140;6.952;2023-02-28T06:07:40;-2.60;69.50
67974;DHT22;54756;51.140;6.952;2023-02-28T06:09:40;-2.60;69.40
67974;DHT22;54756;51.140;6.952;2023-02-28T06:11:41;-2.60;68.90
67974;DHT22;54756;51.140;6.952;2023-02-28T06:13:42;-2.60;68.90
67974;DHT22;54756;51.140;6.952;2023-02-28T06:15:42;-2.50;68.50
67974;DHT22;54756;51.140;6.952;2023-02-28T06:17:44;-2.50;68.20
67974;DHT22;54756;51.140;6.952;2023-02-28T06:19:44;-2.50;67.60
67974;DHT22;54756;51.140;6.952;2023-02-28T06:21:49;-2.60;67.00
67974;DHT22;54756;51.140;6.952;2023-02-28T06:23:50;-2.60;66.40
67974;DHT22;54756;51.140;6.952;2023-02-28T06:25:50;-2.70;65.60
67974;DHT22;54756;51.140;6.952;2023-02-28T06:27:53;-2.70;65.50
67974;DHT22;54756;51.140;6.952;2023-02-28T06:29:58;-2.80;65.00
67974;DHT22;54756;51.140;6.952;2023-02-28T06:31:59;-2.80;65.00
67974;DHT22;54756;51.140;6.952;2023-02-28T06:34:00;-2.90;65.00
67974;DHT22;54756;51.140;6.952;2023-02-28T06:36:00;-2.90;65.20
67974;DHT22;54756;51.140;6.952;2023-02-28T06:38:01;-2.90;65.40
67974;DHT22;54756;51.140;6.952;2023-02-28T06:40:02;-2.90;65.30
67974;DHT22;54756;51.140;6.952;2023-02-28T06:42:03;-2.90;65.20
67974;DHT22;54756;51.140;6.952;2023-02-28T06:44:24;-2.90;65.30
67974;DHT22;54756;51.140;6.952;2023-02-28T06:46:25;-3.00;64.90
67974;DHT22;54756;51.140;6.952;2023-02-28T06:48:26;-2.90;65.40
67974;DHT22;54756;51.140;6.952;2023-02-28T06:50:27;-2.90;65.40
67974;DHT22;54756;51.140;6.952;2023-02-28T06:52:29;-2.80;65.90
67974;DHT22;54756;51.140;6.952;2023-02-28T06:54:30;-2.80;65.50
67974;DHT22;54756;51.140;6.952;2023-02-28T06:56:31;-2.80;65.50
67974;DHT22;54756;51.140;6.952;2023-02-28T06:58:32;-2.70;65.50
67974;DHT22;54756;51.140;6.952;2023-02-28T07:00:32;-2.60;66.30
67974;DHT22;54756;51.140;6.952;2023-02-28T07:02:34;-2.50;66.00
67974;DHT22;54756;51.140;6.952;2023-02-28T07:04:35;-2.40;65.20
67974;DHT22;54756;51.140;6.952;2023-02-28T07:06:35;-2.30;65.00
67974;DHT22;54756;51.140;6.952;2023-02-28T07:08:36;-2.30;64.80
67974;DHT22;54756;51.140;6.952;2023-02-28T07:10:40;-2.20;63.60
67974;DHT22;54756;51.140;6.952;2023-02-28T07:12:41;-2.00;62.20
67974;DHT22;54756;51.140;6.952;2023-02-28T07:14:41;-1.90;60.40
67974;DHT22;54756;51.140;6.952;2023-02-28T07:16:42;-1.80;59.40
67974;DHT22;54756;51.140;6.952;2023-02-28T07:18:42;-1.80;58.30
67974;DHT22;54756;51.140;6.952;2023-02-28T07:20:43;-1.70;58.20
67974;DHT22;54756;51.140;6.952;2023-02-28T07:22:43;-1.60;56.00
67974;DHT22;54756;51.140;6.952;2023-02-28T07:24:44;-1.50;56.30
67974;DHT22;54756;51.140;6.952;2023-02-28T07:26:44;-1.40;56.00
67974;DHT22;54756;51.140;6.952;2023-02-28T07:28:46;-1.40;55.90
67974;DHT22;54756;51.140;6.952;2023-02-28T07:30:47;-1.30;54.30
67974;DHT22;54756;51.140;6.952;2023-02-28T07:32:48;-1.30;53.40
67974;DHT22;54756;51.140;6.952;2023-02-28T07:34:49;-1.20;51.90
67974;DHT22;54756;51.140;6.952;2023-02-28T07:36:52;-1.10;51.80
67974;DHT22;54756;51.140;6.952;2023-02-28T07:38:53;-1.00;50.40
67974;DHT22;54756;51.140;6.952;2023-02-28T07:40:54;-1.00;49.40
67974;DHT22;54756;51.140;6.952;2023-02-28T07:42:54;-0.90;48.20
67974;DHT22;54756;51.140;6.952;2023-02-28T07:44:55;-0.80;48.10
67974;DHT22;54756;51.140;6.952;2023-02-28T07:46:55;-0.70;45.60
67974;DHT22;54756;51.140;6.952;2023-02-28T07:48:56;-0.60;44.90
67974;DHT22;54756;51.140;6.952;2023-02-28T07:51:00;-0.60;44.30
67974;DHT22;54756;51.140;6.952;2023-02-28T07:53:00;-0.50;42.70
67974;DHT22;54756;51.140;6.952;2023-02-28T07:55:01;-0.40;41.30
67974;DHT22;54756;51.140;6.952;2023-02-28T07:57:02;-0.30;39.90
67974;DHT22;54756;51.140;6.952;2023-02-28T07:59:03;-0.20;41.40
67974;DHT22;54756;51.140;6.952;2023-02-28T08:01:08;-0.10;39.50
67974;DHT22;54756;51.140;6.952;2023-02-28T08:03:13;-0.10;38.10
67974;DHT22;54756;51.140;6.952;2023-02-28T08:05:13;0.00;37.70
67974;DHT22;54756;51.140;6.952;2023-02-28T08:07:14;0.20;30.90
67974;DHT22;54756;51.140;6.952;2023-02-28T08:09:14;0.30;31.90
67974;DHT22;54756;51.140;6.952;2023-02-28T08:11:16;0.40;33.40
67974;DHT22;54756;51.140;6.952;2023-02-28T08:13:17;0.50;33.50
67974;DHT22;54756;51.140;6.952;2023-02-28T08:15:18;0.50;30.70
67974;DHT22;54756;51.140;6.952;2023-02-28T08:17:19;0.70;27.40
67974;DHT22;54756;51.140;6.952;2023-02-28T08:19:19;0.80;25.30
67974;DHT22;54756;51.140;6.952;2023-02-28T08:21:20;0.90;25.70
67974;DHT22;54756;51.140;6.952;2023-02-28T08:23:21;1.00;23.80
67974;DHT22;54756;51.140;6.952;2023-02-28T08:25:22;1.10;19.00
67974;DHT22;54756;51.140;6.952;2023-02-28T08:27:22;1.20;15.90
67974;DHT22;54756;51.140;6.952;2023-02-28T08:29:23;1.30;16.30
67974;DHT22;54756;51.140;6.952;2023-02-28T08:31:24;1.40;15.10
67974;DHT22;54756;51.140;6.952;2023-02-28T08:33:24;1.50;12.30
67974;DHT22;54756;51.140;6.952;2023-02-28T08:35:25;1.60;10.50
67974;DHT22;54756;51.140;6.952;2023-02-28T08:37:26;1.80;6.20
67974;DHT22;54756;51.140;6.952;2023-02-28T08:39:26;1.80;3.70
67974;DHT22;54756;51.140;6.952;2023-02-28T08:41:27;1.90;5.70
67974;DHT22;54756;51.140;6.952;2023-02-28T08:43:28;2.00;1.00
67974;DHT22;54756;51.140;6.952;2023-02-28T08:45:29;2.10;1.00
67974;DHT22;54756;51.140;6.952;2023-02-28T08:47:29;2.20;1.00
67974;DHT22;54756;51.140;6.952;2023-02-28T08:49:30;2.20;1.00
67974;DHT22;54756;51.140;6.952;2023-02-28T08:51:30;2.30;1.00
67974;DHT22;54756;51.140;6.952;2023-02-28T08:53:32;2.40;1.00
67974;DHT22;54756;51.140;6.952;2023-02-28T08:55:32;2.40;1.00
67974;DHT22;54756;51.140;6.952;2023-02-28T08:57:33;2.50;1.00
67974;DHT22;54756;51.140;6.952;2023-02-28T08:59:33;2.60;1.00
67974;DHT22;54756;51.140;6.952;2023-02-28T09:01:34;2.70;1.00
67974;DHT22;54756;51.140;6.952;2023-02-28T09:03:34;2.70;1.00
67974;DHT22;54756;51.140;6.952;2023-02-28T09:05:35;2.80;1.00
67974;DHT22;54756;51.140;6.952;2023-02-28T09:07:35;2.90;1.00
67974;DHT22;54756;51.140;6.952;2023-02-28T09:09:36;3.00;1.00
67974;DHT22;54756;51.140;6.952;2023-02-28T09:11:37;3.10;1.00
67974;DHT22;54756;51.140;6.952;2023-02-28T09:13:38;3.20;1.00
67974;DHT22;54756;51.140;6.952;2023-02-28T09:15:39;3.20;1.00
67974;DHT22;54756;51.140;6.952;2023-02-28T09:17:40;3.30;1.00
67974;DHT22;54756;51.140;6.952;2023-02-28T09:19:40;3.40;1.00
67974;DHT22;54756;51.140;6.952;2023-02-28T09:21:41;3.40;1.00
67974;DHT22;54756;51.140;6.952;2023-02-28T09:23:47;3.50;1.00
67974;DHT22;54756;51.140;6.952;2023-02-28T09:25:49;3.60;1.00
67974;DHT22;54756;51.140;6.952;2023-02-28T09:27:50;3.70;1.00
67974;DHT22;54756;51.140;6.952;2023-02-28T09:29:51;3.70;1.00
67974;DHT22;54756;51.140;6.952;2023-02-28T09:31:51;3.70;1.00
67974;DHT22;54756;51.140;6.952;2023-02-28T09:33:54;3.80;1.00
67974;DHT22;54756;51.140;6.952;2023-02-28T09:36:00;3.80;1.00
67974;DHT22;54756;51.140;6.952;2023-02-28T09:38:01;3.90;1.00
67974;DHT22;54756;51.140;6.952;2023-02-28T09:40:03;3.90;1.00
67974;DHT22;54756;51.140;6.952;2023-02-28T09:42:04;3.90;1.00
67974;DHT22;54756;51.140;6.952;2023-02-28T09:44:05;3.90;1.00
67974;DHT22;54756;51.140;6.952;2023-02-28T09:46:18;4.00;1.00
67974;DHT22;54756;51.140;6.952;2023-02-28T09:48:24;4.00;1.00
67974;DHT22;54756;51.140;6.952;2023-02-28T09:50:30;4.00;1.00
67974;DHT22;54756;51.140;6.952;2023-02-28T09:52:33;4.10;1.00
67974;DHT22;54756;51.140;6.952;2023-02-28T09:54:35;4.20;1.00
67974;DHT22;54756;51.140;6.952;2023-02-28T09:56:40;4.40;1.00
67974;DHT22;54756;51.140;6.952;2023-02-28T09:58:49;4.60;1.00
67974;DHT22;54756;51.140;6.952;2023-02-28T10:01:20;4.70;1.00
67974;DHT22;54756;51.140;6.952;2023-02-28T10:03:25;4.80;1.00
67974;DHT22;54756;51.140;6.952;2023-02-28T10:05:41;4.90;1.00
67974;DHT22;54756;51.140;6.952;2023-02-28T10:10:36;5.30;1.00
67974;DHT22;54756;51.140;6.952;2023-02-28T10:12:41;5.50;1.00
67974;DHT22;54756;51.140;6.952;2023-02-28T10:14:46;5.60;1.00
67974;DHT22;54756;51.140;6.952;2023-02-28T10:16:53;5.70;1.00
67974;DHT22;54756;51.140;6.952;2023-02-28T10:19:20;5.80;1.00
67974;DHT22;54756;51.140;6.952;2023-02-28T10:21:35;6.00;1.00
67974;DHT22;54756;51.140;6.952;2023-02-28T10:23:37;6.10;1.00
67974;DHT22;54756;51.140;6.952;2023-02-28T10:25:38;6.20;1.00
67974;DHT22;54756;51.140;6.952;2023-02-28T10:27:39;6.20;1.00
67974;DHT22;54756;51.140;6.952;2023-02-28T10:29:43;6.00;1.00
67974;DHT22;54756;51.140;6.952;2023-02-28T10:31:44;5.90;1.00
67974;DHT22;54756;51.140;6.952;2023-02-28T10:33:45;5.90;1.00
67974;DHT22;54756;51.140;6.952;2023-02-28T10:35:46;6.10;1.00
67974;DHT22;54756;51.140;6.952;2023-02-28T10:37:55;6.30;1.00
67974;DHT22;54756;51.140;6.952;2023-02-28T10:39:56;6.40;1.00
67974;DHT22;54756;51.140;6.952;2023-02-28T10:41:56;6.60;1.00
67974;DHT22;54756;51.140;6.952;2023-02-28T10:44:17;6.60;1.00
67974;DHT22;54756;51.140;6.952;2023-02-28T10:46:20;6.50;1.00
67974;DHT22;54756;51.140;6.952;2023-02-28T10:48:50;6.30;1.00
67974;DHT22;54756;51.140;6.952;2023-02-28T10:50:54;6.10;1.00
67974;DHT22;54756;51.140;6.952;2023-02-28T10:55:20;6.00;1.00
67974;DHT22;54756;51.140;6.952;2023-02-28T10:57:23;6.20;1.00
67974;DHT22;54756;51.140;6.952;2023-02-28T10:59:31;6.50;1.00
67974;DHT22;54756;51.140;6.952;2023-02-28T11:01:39;6.50;1.00
67974;DHT22;54756;51.140;6.952;2023-02-28T11:03:40;6.70;1.00
67974;DHT22;54756;51.140;6.952;2023-02-28T11:05:45;6.70;1.00
67974;DHT22;54756;51.140;6.952;2023-02-28T11:08:33;6.80;1.00
67974;DHT22;54756;51.140;6.952;2023-02-28T11:10:19;6.80;1.00
67974;DHT22;54756;51.140;6.952;2023-02-28T11:14:31;7.00;1.00
67974;DHT22;54756;51.140;6.952;2023-02-28T11:16:36;7.10;1.00
67974;DHT22;54756;51.140;6.952;2023-02-28T11:18:43;7.10;1.00
67974;DHT22;54756;51.140;6.952;2023-02-28T11:20:51;7.30;1.00
67974;DHT22;54756;51.140;6.952;2023-02-28T11:22:57;7.60;1.00
67974;DHT22;54756;51.140;6.952;2023-02-28T11:25:06;7.80;1.00
67974;DHT22;54756;51.140;6.952;2023-02-28T11:29:32;8.00;1.00
67974;DHT22;54756;51.140;6.952;2023-02-28T11:31:33;7.80;1.00
67974;DHT22;54756;51.140;6.952;2023-02-28T11:33:49;7.70;1.00
67974;DHT22;54756;51.140;6.952;2023-02-28T11:35:52;7.50;1.00
67974;DHT22;54756;51.140;6.952;2023-02-28T11:37:57;7.40;1.00
67974;DHT22;54756;51.140;6.952;2023-02-28T11:39:57;7.50;1.00
67974;DHT22;54756;51.140;6.952;2023-02-28T11:47:03;7.80;1.00
67974;DHT22;54756;51.140;6.952;2023-02-28T11:56:41;9.30;1.00
67974;DHT22;54756;51.140;6.952;2023-02-28T12:14:46;10.90;99.90
67974;DHT22;54756;51.140;6.952;2023-02-28T12:17:13;10.90;99.90
67974;DHT22;54756;51.140;6.952;2023-02-28T12:19:26;11.00;99.90
67974;DHT22;54756;51.140;6.952;2023-02-28T12:28:24;15.30;99.90
67974;DHT22;54756;51.140;6.952;2023-02-28T12:30:32;15.80;1.00
67974;DHT22;54756;51.140;6.952;2023-02-28T12:32:37;16.00;1.00
67974;DHT22;54756;51.140;6.952;2023-02-28T12:34:49;16.40;1.00
67974;DHT22;54756;51.140;6.952;2023-02-28T12:36:52;17.10;1.00
67974;DHT22;54756;51.140;6.952;2023-02-28T12:39:02;17.80;1.00
67974;DHT22;54756;51.140;6.952;2023-02-28T12:43:57;18.40;1.00
67974;DHT22;54756;51.140;6.952;2023-02-28T12:46:23;18.40;99.90
67974;DHT22;54756;51.140;6.952;2023-02-28T12:48:33;18.90;1.00
67974;DHT22;54756;51.140;6.952;2023-02-28T12:50:38;19.50;1.30
67974;DHT22;54756;51.140;6.952;2023-02-28T12:52:53;20.00;99.90
67974;DHT22;54756;51.140;6.952;2023-02-28T12:55:00;19.90;99.90
67974;DHT22;54756;51.140;6.952;2023-02-28T12:59:41;20.00;99.90
67974;DHT22;54756;51.140;6.952;2023-02-28T13:02:19;19.80;99.90
67974;DHT22;54756;51.140;6.952;2023-02-28T13:04:42;19.60;99.90
67974;DHT22;54756;51.140;6.952;2023-02-28T13:07:13;19.80;1.00
67974;DHT22;54756;51.140;6.952;2023-02-28T13:09:17;20.00;99.90
67974;DHT22;54756;51.140;6.952;2023-02-28T13:11:32;20.60;1.00
67974;DHT22;54756;51.140;6.952;2023-02-28T13:13:33;21.00;99.90
67974;DHT22;54756;51.140;6.952;2023-02-28T13:15:34;21.10;1.00
67974;DHT22;54756;51.140;6.952;2023-02-28T13:17:39;21.30;99.90
67974;DHT22;54756;51.140;6.952;2023-02-28T13:19:44;21.50;1.00
67974;DHT22;54756;51.140;6.952;2023-02-28T13:21:45;21.80;1.00
67974;DHT22;54756;51.140;6.952;2023-02-28T13:25:58;22.80;99.90
67974;DHT22;54756;51.140;6.952;2023-02-28T13:28:06;23.10;1.00
67974;DHT22;54756;51.140;6.952;2023-02-28T13:35:37;23.00;99.90
67974;DHT22;54756;51.140;6.952;2023-02-28T13:37:46;22.90;1.00
67974;DHT22;54756;51.140;6.952;2023-02-28T13:39:54;23.10;1.00
67974;DHT22;54756;51.140;6.952;2023-02-28T13:41:55;23.10;1.00
67974;DHT22;54756;51.140;6.952;2023-02-28T13:44:22;23.50;1.00
67974;DHT22;54756;51.140;6.952;2023-02-28T13:46:26;23.70;99.90
67974;DHT22;54756;51.140;6.952;2023-02-28T13:48:27;24.20;99.90
67974;DHT22;54756;51.140;6.952;2023-02-28T13:50:39;24.30;1.00
67974;DHT22;54756;51.140;6.952;2023-02-28T13:55:22;24.10;1.00
67974;DHT22;54756;51.140;6.952;2023-02-28T14:06:36;26.00;99.90
67974;DHT22;54756;51.140;6.952;2023-02-28T14:08:48;26.20;1.00
67974;DHT22;54756;51.140;6.952;2023-02-28T14:11:06;26.30;99.90
67974;DHT22;54756;51.140;6.952;2023-02-28T14:13:44;26.00;99.90
67974;DHT22;54756;51.140;6.952;2023-02-28T14:15:56;26.10;99.90
67974;DHT22;54756;51.140;6.952;2023-02-28T14:17:59;26.10;1.00
67974;DHT22;54756;51.140;6.952;2023-02-28T14:20:01;26.20;99.90
67974;DHT22;54756;51.140;6.952;2023-02-28T14:24:42;26.80;1.00
67974;DHT22;54756;51.140;6.952;2023-02-28T14:27:05;26.90;1.00
67974;DHT22;54756;51.140;6.952;2023-02-28T14:31:44;27.70;1.00
67974;DHT22;54756;51.140;6.952;2023-02-28T14:36:18;27.30;1.00
67974;DHT22;54756;51.140;6.952;2023-02-28T14:38:25;27.80;1.00
67974;DHT22;54756;51.140;6.952;2023-02-28T14:40:33;28.20;1.00
67974;DHT22;54756;51.140;6.952;2023-02-28T14:42:37;28.40;99.90
67974;DHT22;54756;51.140;6.952;2023-02-28T14:44:54;28.50;28.30
67974;DHT22;54756;51.140;6.952;2023-02-28T14:46:59;28.00;1.00
67974;DHT22;54756;51.140;6.952;2023-02-28T14:49:06;28.10;1.00
67974;DHT22;54756;51.140;6.952;2023-02-28T14:51:08;27.70;1.00
67974;DHT22;54756;51.140;6.952;2023-02-28T14:53:18;27.60;1.00
67974;DHT22;54756;51.140;6.952;2023-02-28T14:55:24;27.40;99.90
67974;DHT22;54756;51.140;6.952;2023-02-28T14:59:34;27.30;1.00
67974;DHT22;54756;51.140;6.952;2023-02-28T15:01:35;27.30;99.90